sensor_id;sensor_type;location;lat;lon;timestamp;P1;durP1;ratioP1;P2;durP2;ratioP2
12715;SDS011;6422;49.938;9.124;2022-11-27T00:00:19;6.40;;;1.60;;
12715;SDS011;6422;49.938;9.124;2022-11-27T00:02:44;3.70;;;1.50;;
12715;SDS011;6422;49.938;9.124;2022-11-27T00:05:10;2.30;;;1.63;;
12715;SDS011;6422;49.938;9.124;2022-11-27T00:07:35;20.83;;;2.90;;
12715;SDS011;6422;49.938;9.124;2022-11-27T00:10:00;4.17;;;2.20;;
12715;SDS011;6422;49.938;9.124;2022-11-27T00:12:25;7.03;;;3.70;;
12715;SDS011;6422;49.938;9.124;2022-11-27T00:14:50;10.07;;;4.23;;
12715;SDS011;6422;49.938;9.124;2022-11-27T00:17:16;4.75;;;2.40;;
12715;SDS011;6422;49.938;9.124;2022-11-27T00:19:41;7.67;;;2.80;;
12715;SDS011;6422;49.938;9.124;2022-11-27T00:22:06;6.10;;;2.67;;
12715;SDS011;6422;49.938;9.124;2022-11-27T00:24:31;9.57;;;2.30;;
12715;SDS011;6422;49.938;9.124;2022-11-27T00:26:57;7.80;;;2.17;;
12715;SDS011;6422;49.938;9.124;2022-11-27T00:29:22;10.00;;;2.83;;
12715;SDS011;6422;49.938;9.124;2022-11-27T00:31:48;6.17;;;2.43;;
12715;SDS011;6422;49.938;9.124;2022-11-27T00:34:13;3.25;;;1.85;;
12715;SDS011;6422;49.938;9.124;2022-11-27T00:36:38;6.73;;;2.53;;
12715;SDS011;6422;49.938;9.124;2022-11-27T00:39:03;3.07;;;2.40;;
12715;SDS011;6422;49.938;9.124;2022-11-27T00:41:29;3.93;;;2.20;;
12715;SDS011;6422;49.938;9.124;2022-11-27T00:43:55;10.83;;;2.93;;
12715;SDS011;6422;49.938;9.124;2022-11-27T00:46:21;5.83;;;2.90;;
12715;SDS011;6422;49.938;9.124;2022-11-27T00:48:46;4.30;;;2.77;;
12715;SDS011;6422;49.938;9.124;2022-11-27T00:51:13;10.93;;;3.40;;
12715;SDS011;6422;49.938;9.124;2022-11-27T00:53:38;3.70;;;2.17;;
12715;SDS011;6422;49.938;9.124;2022-11-27T00:56:03;5.97;;;3.23;;
12715;SDS011;6422;49.938;9.124;2022-11-27T00:58:29;14.37;;;5.20;;
12715;SDS011;6422;49.938;9.124;2022-11-27T01:00:58;11.80;;;4.03;;
12715;SDS011;6422;49.938;9.124;2022-11-27T01:03:24;26.93;;;6.67;;
12715;SDS011;6422;49.938;9.124;2022-11-27T01:05:49;10.83;;;3.13;;
12715;SDS011;6422;49.938;9.124;2022-11-27T01:08:15;7.70;;;4.03;;
12715;SDS011;6422;49.938;9.124;2022-11-27T01:10:46;14.67;;;3.90;;
12715;SDS011;6422;49.938;9.124;2022-11-27T01:13:11;4.37;;;1.90;;
12715;SDS011;6422;49.938;9.124;2022-11-27T01:15:37;6.77;;;2.10;;
12715;SDS011;6422;49.938;9.124;2022-11-27T01:18:02;9.30;;;2.60;;
12715;SDS011;6422;49.938;9.124;2022-11-27T01:20:27;6.73;;;3.10;;
12715;SDS011;6422;49.938;9.124;2022-11-27T01:22:52;3.67;;;2.23;;
12715;SDS011;6422;49.938;9.124;2022-11-27T01:25:17;2.23;;;1.67;;
12715;SDS011;6422;49.938;9.124;2022-11-27T01:27:43;4.43;;;2.17;;
12715;SDS011;6422;49.938;9.124;2022-11-27T01:30:08;5.73;;;2.20;;
12715;SDS011;6422;49.938;9.124;2022-11-27T01:32:34;10.90;;;1.67;;
12715;SDS011;6422;49.938;9.124;2022-11-27T01:34:59;6.13;;;1.83;;
12715;SDS011;6422;49.938;9.124;2022-11-27T01:37:24;8.30;;;2.50;;
12715;SDS011;6422;49.938;9.124;2022-11-27T01:39:49;3.90;;;2.30;;
12715;SDS011;6422;49.938;9.124;2022-11-27T01:42:14;4.70;;;2.27;;
12715;SDS011;6422;49.938;9.124;2022-11-27T01:44:46;4.00;;;1.87;;
12715;SDS011;6422;49.938;9.124;2022-11-27T01:47:13;11.50;;;2.67;;
12715;SDS011;6422;49.938;9.124;2022-11-27T01:49:43;2.20;;;1.43;;
12715;SDS011;6422;49.938;9.124;2022-11-27T01:52:10;3.93;;;2.50;;
12715;SDS011;6422;49.938;9.124;2022-11-27T01:54:51;2.53;;;1.93;;
12715;SDS011;6422;49.938;9.124;2022-11-27T01:57:19;2.60;;;1.63;;
12715;SDS011;6422;49.938;9.124;2022-11-27T01:59:46;4.17;;;1.77;;
12715;SDS011;6422;49.938;9.124;2022-11-27T02:02:12;3.87;;;1.40;;
12715;SDS011;6422;49.938;9.124;2022-11-27T02:04:37;2.20;;;1.43;;
12715;SDS011;6422;49.938;9.124;2022-11-27T02:07:03;4.70;;;2.40;;
12715;SDS011;6422;49.938;9.124;2022-11-27T02:09:29;3.13;;;1.73;;
12715;SDS011;6422;49.938;9.124;2022-11-27T02:14:36;4.07;;;1.90;;
12715;SDS011;6422;49.938;9.124;2022-11-27T02:22:01;1.67;;;1.50;;
12715;SDS011;6422;49.938;9.124;2022-11-27T02:27:03;3.43;;;1.57;;
12715;SDS011;6422;49.938;9.124;2022-11-27T02:29:31;5.63;;;1.73;;
12715;SDS011;6422;49.938;9.124;2022-11-27T02:36:55;1.85;;;1.33;;
12715;SDS011;6422;49.938;9.124;2022-11-27T02:39:24;3.13;;;1.67;;
12715;SDS011;6422;49.938;9.124;2022-11-27T02:41:53;4.40;;;3.03;;
12715;SDS011;6422;49.938;9.124;2022-11-27T02:44:19;4.00;;;2.30;;
12715;SDS011;6422;49.938;9.124;2022-11-27T02:46:46;4.20;;;1.77;;
12715;SDS011;6422;49.938;9.124;2022-11-27T02:49:13;2.30;;;1.63;;
12715;SDS011;6422;49.938;9.124;2022-11-27T02:51:48;6.73;;;1.60;;
12715;SDS011;6422;49.938;9.124;2022-11-27T02:54:17;2.30;;;1.63;;
12715;SDS011;6422;49.938;9.124;2022-11-27T02:56:43;3.43;;;1.60;;
12715;SDS011;6422;49.938;9.124;2022-11-27T02:59:12;2.90;;;1.47;;
12715;SDS011;6422;49.938;9.124;2022-11-27T03:01:39;2.00;;;1.60;;
12715;SDS011;6422;49.938;9.124;2022-11-27T03:04:07;10.77;;;2.70;;
12715;SDS011;6422;49.938;9.124;2022-11-27T03:06:36;5.93;;;2.00;;
12715;SDS011;6422;49.938;9.124;2022-11-27T03:09:47;5.30;;;2.83;;
12715;SDS011;6422;49.938;9.124;2022-11-27T03:11:52;3.40;;;2.27;;
12715;SDS011;6422;49.938;9.124;2022-11-27T03:14:18;5.50;;;2.93;;
12715;SDS011;6422;49.938;9.124;2022-11-27T03:19:22;5.72;;;2.75;;
12715;SDS011;6422;49.938;9.124;2022-11-27T03:21:50;4.90;;;3.40;;
12715;SDS011;6422;49.938;9.124;2022-11-27T03:24:16;11.97;;;3.40;;
12715;SDS011;6422;49.938;9.124;2022-11-27T03:26:41;6.13;;;3.23;;
12715;SDS011;6422;49.938;9.124;2022-11-27T03:29:18;5.23;;;2.83;;
12715;SDS011;6422;49.938;9.124;2022-11-27T03:31:45;8.27;;;3.03;;
12715;SDS011;6422;49.938;9.124;2022-11-27T03:34:10;12.00;;;6.17;;
12715;SDS011;6422;49.938;9.124;2022-11-27T03:36:36;20.03;;;5.40;;
12715;SDS011;6422;49.938;9.124;2022-11-27T03:39:01;60.73;;;8.23;;
12715;SDS011;6422;49.938;9.124;2022-11-27T03:46:36;172.60;;;14.47;;
12715;SDS011;6422;49.938;9.124;2022-11-27T03:49:15;67.37;;;11.40;;
12715;SDS011;6422;49.938;9.124;2022-11-27T03:52:04;115.73;;;11.83;;
12715;SDS011;6422;49.938;9.124;2022-11-27T03:57:12;100.47;;;11.70;;
12715;SDS011;6422;49.938;9.124;2022-11-27T03:59:39;146.00;;;15.07;;
12715;SDS011;6422;49.938;9.124;2022-11-27T04:02:10;66.10;;;11.73;;
12715;SDS011;6422;49.938;9.124;2022-11-27T04:04:36;31.70;;;5.33;;
12715;SDS011;6422;49.938;9.124;2022-11-27T04:07:01;55.67;;;9.60;;
12715;SDS011;6422;49.938;9.124;2022-11-27T04:09:26;51.70;;;8.03;;
12715;SDS011;6422;49.938;9.124;2022-11-27T04:11:51;49.83;;;8.23;;
12715;SDS011;6422;49.938;9.124;2022-11-27T04:14:16;94.03;;;6.70;;
12715;SDS011;6422;49.938;9.124;2022-11-27T04:16:42;79.73;;;8.00;;
12715;SDS011;6422;49.938;9.124;2022-11-27T04:19:07;22.43;;;6.20;;
12715;SDS011;6422;49.938;9.124;2022-11-27T04:21:33;25.20;;;6.10;;
12715;SDS011;6422;49.938;9.124;2022-11-27T04:23:58;59.10;;;9.37;;
12715;SDS011;6422;49.938;9.124;2022-11-27T04:26:23;23.43;;;5.33;;
12715;SDS011;6422;49.938;9.124;2022-11-27T04:28:48;7.53;;;3.87;;
12715;SDS011;6422;49.938;9.124;2022-11-27T04:31:14;38.27;;;6.90;;
12715;SDS011;6422;49.938;9.124;2022-11-27T04:33:39;6.97;;;3.77;;
12715;SDS011;6422;49.938;9.124;2022-11-27T04:36:04;7.70;;;4.53;;
12715;SDS011;6422;49.938;9.124;2022-11-27T04:38:29;9.50;;;4.03;;
12715;SDS011;6422;49.938;9.124;2022-11-27T04:40:54;63.47;;;4.73;;
12715;SDS011;6422;49.938;9.124;2022-11-27T04:43:20;32.37;;;6.03;;
12715;SDS011;6422;49.938;9.124;2022-11-27T04:45:45;8.60;;;3.60;;
12715;SDS011;6422;49.938;9.124;2022-11-27T04:48:10;51.50;;;4.17;;
12715;SDS011;6422;49.938;9.124;2022-11-27T04:50:35;47.93;;;7.10;;
12715;SDS011;6422;49.938;9.124;2022-11-27T04:53:00;76.30;;;7.50;;
12715;SDS011;6422;49.938;9.124;2022-11-27T04:55:26;70.60;;;9.93;;
12715;SDS011;6422;49.938;9.124;2022-11-27T04:57:51;54.60;;;7.73;;
12715;SDS011;6422;49.938;9.124;2022-11-27T05:00:16;115.30;;;9.53;;
12715;SDS011;6422;49.938;9.124;2022-11-27T05:02:42;80.40;;;9.40;;
12715;SDS011;6422;49.938;9.124;2022-11-27T05:05:07;65.53;;;6.70;;
12715;SDS011;6422;49.938;9.124;2022-11-27T05:07:32;168.10;;;12.30;;
12715;SDS011;6422;49.938;9.124;2022-11-27T05:09:57;52.57;;;6.77;;
12715;SDS011;6422;49.938;9.124;2022-11-27T05:12:22;75.47;;;8.60;;
12715;SDS011;6422;49.938;9.124;2022-11-27T05:14:48;23.30;;;8.47;;
12715;SDS011;6422;49.938;9.124;2022-11-27T05:17:13;6.90;;;2.77;;
12715;SDS011;6422;49.938;9.124;2022-11-27T05:19:38;8.67;;;4.20;;
12715;SDS011;6422;49.938;9.124;2022-11-27T05:22:03;4.80;;;2.97;;
12715;SDS011;6422;49.938;9.124;2022-11-27T05:24:29;5.90;;;3.17;;
12715;SDS011;6422;49.938;9.124;2022-11-27T05:26:55;6.53;;;3.27;;
12715;SDS011;6422;49.938;9.124;2022-11-27T05:29:20;7.43;;;3.90;;
12715;SDS011;6422;49.938;9.124;2022-11-27T05:31:46;8.10;;;3.83;;
12715;SDS011;6422;49.938;9.124;2022-11-27T05:34:11;5.63;;;3.20;;
12715;SDS011;6422;49.938;9.124;2022-11-27T05:36:37;7.83;;;3.80;;
12715;SDS011;6422;49.938;9.124;2022-11-27T05:39:03;11.53;;;3.97;;
12715;SDS011;6422;49.938;9.124;2022-11-27T05:41:28;7.40;;;4.30;;
12715;SDS011;6422;49.938;9.124;2022-11-27T05:43:54;11.37;;;4.50;;
12715;SDS011;6422;49.938;9.124;2022-11-27T05:46:20;10.40;;;4.10;;
12715;SDS011;6422;49.938;9.124;2022-11-27T05:48:45;6.73;;;4.30;;
12715;SDS011;6422;49.938;9.124;2022-11-27T05:51:11;7.43;;;3.63;;
12715;SDS011;6422;49.938;9.124;2022-11-27T05:53:36;7.80;;;3.70;;
12715;SDS011;6422;49.938;9.124;2022-11-27T05:56:02;5.97;;;2.80;;
12715;SDS011;6422;49.938;9.124;2022-11-27T05:58:28;12.00;;;3.40;;
12715;SDS011;6422;49.938;9.124;2022-11-27T06:00:53;3.60;;;2.57;;
12715;SDS011;6422;49.938;9.124;2022-11-27T06:03:18;7.60;;;3.53;;
12715;SDS011;6422;49.938;9.124;2022-11-27T06:05:43;6.53;;;3.38;;
12715;SDS011;6422;49.938;9.124;2022-11-27T06:08:08;5.67;;;3.30;;
12715;SDS011;6422;49.938;9.124;2022-11-27T06:10:34;6.13;;;3.30;;
12715;SDS011;6422;49.938;9.124;2022-11-27T06:12:59;6.23;;;3.40;;
12715;SDS011;6422;49.938;9.124;2022-11-27T06:15:24;11.10;;;3.20;;
12715;SDS011;6422;49.938;9.124;2022-11-27T06:17:49;6.30;;;2.90;;
12715;SDS011;6422;49.938;9.124;2022-11-27T06:20:15;5.80;;;3.10;;
12715;SDS011;6422;49.938;9.124;2022-11-27T06:22:40;5.83;;;3.37;;
12715;SDS011;6422;49.938;9.124;2022-11-27T06:25:05;7.27;;;2.67;;
12715;SDS011;6422;49.938;9.124;2022-11-27T06:27:34;6.37;;;2.90;;
12715;SDS011;6422;49.938;9.124;2022-11-27T06:29:59;6.97;;;3.77;;
12715;SDS011;6422;49.938;9.124;2022-11-27T06:32:25;6.63;;;2.50;;
12715;SDS011;6422;49.938;9.124;2022-11-27T06:34:50;4.10;;;2.33;;
12715;SDS011;6422;49.938;9.124;2022-11-27T06:37:15;5.93;;;2.73;;
12715;SDS011;6422;49.938;9.124;2022-11-27T06:39:40;7.10;;;3.97;;
12715;SDS011;6422;49.938;9.124;2022-11-27T06:42:05;8.23;;;3.77;;
12715;SDS011;6422;49.938;9.124;2022-11-27T06:44:31;4.90;;;3.07;;
12715;SDS011;6422;49.938;9.124;2022-11-27T06:46:56;5.40;;;2.73;;
12715;SDS011;6422;49.938;9.124;2022-11-27T06:49:21;5.07;;;2.57;;
12715;SDS011;6422;49.938;9.124;2022-11-27T06:51:47;3.03;;;2.33;;
12715;SDS011;6422;49.938;9.124;2022-11-27T06:54:12;7.23;;;3.30;;
12715;SDS011;6422;49.938;9.124;2022-11-27T06:56:37;6.07;;;3.77;;
12715;SDS011;6422;49.938;9.124;2022-11-27T06:59:03;5.33;;;3.70;;
12715;SDS011;6422;49.938;9.124;2022-11-27T07:01:28;8.13;;;3.70;;
12715;SDS011;6422;49.938;9.124;2022-11-27T07:03:54;6.20;;;2.70;;
12715;SDS011;6422;49.938;9.124;2022-11-27T07:06:21;3.97;;;2.13;;
12715;SDS011;6422;49.938;9.124;2022-11-27T07:08:47;6.73;;;3.47;;
12715;SDS011;6422;49.938;9.124;2022-11-27T07:11:13;5.00;;;2.70;;
12715;SDS011;6422;49.938;9.124;2022-11-27T07:13:39;4.30;;;3.07;;
12715;SDS011;6422;49.938;9.124;2022-11-27T07:16:06;3.97;;;2.90;;
12715;SDS011;6422;49.938;9.124;2022-11-27T07:18:36;6.83;;;3.03;;
12715;SDS011;6422;49.938;9.124;2022-11-27T07:21:02;5.50;;;2.80;;
12715;SDS011;6422;49.938;9.124;2022-11-27T07:23:27;7.73;;;3.63;;
12715;SDS011;6422;49.938;9.124;2022-11-27T07:25:52;5.90;;;3.57;;
12715;SDS011;6422;49.938;9.124;2022-11-27T07:28:17;7.53;;;3.00;;
12715;SDS011;6422;49.938;9.124;2022-11-27T07:30:42;10.30;;;3.10;;
12715;SDS011;6422;49.938;9.124;2022-11-27T07:33:07;5.63;;;2.60;;
12715;SDS011;6422;49.938;9.124;2022-11-27T07:35:33;6.00;;;2.90;;
12715;SDS011;6422;49.938;9.124;2022-11-27T07:37:58;7.70;;;3.07;;
12715;SDS011;6422;49.938;9.124;2022-11-27T07:40:23;4.50;;;2.13;;
12715;SDS011;6422;49.938;9.124;2022-11-27T07:42:49;4.50;;;2.30;;
12715;SDS011;6422;49.938;9.124;2022-11-27T07:45:14;4.27;;;3.07;;
12715;SDS011;6422;49.938;9.124;2022-11-27T07:47:39;9.70;;;2.23;;
12715;SDS011;6422;49.938;9.124;2022-11-27T07:50:05;3.77;;;2.47;;
12715;SDS011;6422;49.938;9.124;2022-11-27T07:52:33;4.37;;;2.77;;
12715;SDS011;6422;49.938;9.124;2022-11-27T07:54:58;2.20;;;1.40;;
12715;SDS011;6422;49.938;9.124;2022-11-27T07:57:23;5.17;;;2.80;;
12715;SDS011;6422;49.938;9.124;2022-11-27T07:59:48;3.13;;;2.50;;
12715;SDS011;6422;49.938;9.124;2022-11-27T08:02:14;3.72;;;2.47;;
12715;SDS011;6422;49.938;9.124;2022-11-27T08:04:39;4.77;;;2.60;;
12715;SDS011;6422;49.938;9.124;2022-11-27T08:07:04;3.27;;;1.97;;
12715;SDS011;6422;49.938;9.124;2022-11-27T08:09:29;4.33;;;2.40;;
12715;SDS011;6422;49.938;9.124;2022-11-27T08:11:55;4.40;;;2.83;;
12715;SDS011;6422;49.938;9.124;2022-11-27T08:14:20;4.23;;;2.50;;
12715;SDS011;6422;49.938;9.124;2022-11-27T08:16:45;3.93;;;2.23;;
12715;SDS011;6422;49.938;9.124;2022-11-27T08:19:10;3.60;;;1.97;;
12715;SDS011;6422;49.938;9.124;2022-11-27T08:21:36;4.23;;;2.40;;
12715;SDS011;6422;49.938;9.124;2022-11-27T08:24:01;3.00;;;2.00;;
12715;SDS011;6422;49.938;9.124;2022-11-27T08:26:26;8.00;;;3.53;;
12715;SDS011;6422;49.938;9.124;2022-11-27T08:28:52;4.07;;;2.80;;
12715;SDS011;6422;49.938;9.124;2022-11-27T08:31:17;4.53;;;2.50;;
12715;SDS011;6422;49.938;9.124;2022-11-27T08:33:44;4.80;;;2.67;;
12715;SDS011;6422;49.938;9.124;2022-11-27T08:36:09;13.50;;;5.37;;
12715;SDS011;6422;49.938;9.124;2022-11-27T08:38:34;7.33;;;3.47;;
12715;SDS011;6422;49.938;9.124;2022-11-27T08:41:01;3.73;;;2.87;;
12715;SDS011;6422;49.938;9.124;2022-11-27T08:43:26;4.43;;;2.40;;
12715;SDS011;6422;49.938;9.124;2022-11-27T08:45:52;3.60;;;1.77;;
12715;SDS011;6422;49.938;9.124;2022-11-27T08:48:18;4.17;;;2.70;;
12715;SDS011;6422;49.938;9.124;2022-11-27T08:50:43;3.17;;;1.43;;
12715;SDS011;6422;49.938;9.124;2022-11-27T08:53:09;4.50;;;2.13;;
12715;SDS011;6422;49.938;9.124;2022-11-27T08:55:34;4.03;;;2.40;;
12715;SDS011;6422;49.938;9.124;2022-11-27T08:57:59;5.00;;;2.50;;
12715;SDS011;6422;49.938;9.124;2022-11-27T09:00:25;4.70;;;2.40;;
12715;SDS011;6422;49.938;9.124;2022-11-27T09:02:50;18.30;;;3.47;;
12715;SDS011;6422;49.938;9.124;2022-11-27T09:05:15;4.30;;;2.60;;
12715;SDS011;6422;49.938;9.124;2022-11-27T09:07:40;4.50;;;2.20;;
12715;SDS011;6422;49.938;9.124;2022-11-27T09:10:08;7.63;;;3.83;;
12715;SDS011;6422;49.938;9.124;2022-11-27T09:12:34;3.87;;;2.50;;
12715;SDS011;6422;49.938;9.124;2022-11-27T09:14:59;11.30;;;2.40;;
12715;SDS011;6422;49.938;9.124;2022-11-27T09:17:24;7.60;;;2.38;;
12715;SDS011;6422;49.938;9.124;2022-11-27T09:19:50;5.57;;;2.27;;
12715;SDS011;6422;49.938;9.124;2022-11-27T09:22:15;2.47;;;2.03;;
12715;SDS011;6422;49.938;9.124;2022-11-27T09:24:40;2.80;;;2.17;;
12715;SDS011;6422;49.938;9.124;2022-11-27T09:27:05;6.23;;;2.60;;
12715;SDS011;6422;49.938;9.124;2022-11-27T09:29:32;3.30;;;1.80;;
12715;SDS011;6422;49.938;9.124;2022-11-27T09:31:57;6.27;;;2.30;;
12715;SDS011;6422;49.938;9.124;2022-11-27T09:34:22;4.30;;;2.17;;
12715;SDS011;6422;49.938;9.124;2022-11-27T09:36:48;5.40;;;2.50;;
12715;SDS011;6422;49.938;9.124;2022-11-27T09:39:14;6.90;;;2.43;;
12715;SDS011;6422;49.938;9.124;2022-11-27T09:41:42;3.53;;;1.57;;
12715;SDS011;6422;49.938;9.124;2022-11-27T09:44:17;7.07;;;1.70;;
12715;SDS011;6422;49.938;9.124;2022-11-27T09:46:47;7.23;;;2.27;;
12715;SDS011;6422;49.938;9.124;2022-11-27T09:49:14;2.03;;;1.53;;
12715;SDS011;6422;49.938;9.124;2022-11-27T09:51:52;12.73;;;1.87;;
12715;SDS011;6422;49.938;9.124;2022-11-27T09:54:24;2.93;;;2.07;;
12715;SDS011;6422;49.938;9.124;2022-11-27T09:56:52;3.07;;;1.73;;
12715;SDS011;6422;49.938;9.124;2022-11-27T09:59:18;36.50;;;2.73;;
12715;SDS011;6422;49.938;9.124;2022-11-27T10:01:45;5.10;;;2.47;;
12715;SDS011;6422;49.938;9.124;2022-11-27T10:04:11;2.13;;;1.47;;
12715;SDS011;6422;49.938;9.124;2022-11-27T10:17:08;6.20;;;3.17;;
12715;SDS011;6422;49.938;9.124;2022-11-27T10:19:49;3.87;;;2.63;;
12715;SDS011;6422;49.938;9.124;2022-11-27T10:22:24;1.97;;;1.57;;
12715;SDS011;6422;49.938;9.124;2022-11-27T10:27:39;1.83;;;1.57;;
12715;SDS011;6422;49.938;9.124;2022-11-27T10:30:16;4.40;;;2.17;;
12715;SDS011;6422;49.938;9.124;2022-11-27T10:32:42;4.30;;;2.40;;
12715;SDS011;6422;49.938;9.124;2022-11-27T10:35:15;3.10;;;2.17;;
12715;SDS011;6422;49.938;9.124;2022-11-27T10:37:54;3.83;;;1.87;;
12715;SDS011;6422;49.938;9.124;2022-11-27T10:40:22;3.87;;;2.03;;
12715;SDS011;6422;49.938;9.124;2022-11-27T10:43:02;3.83;;;1.50;;
12715;SDS011;6422;49.938;9.124;2022-11-27T10:48:02;2.63;;;2.30;;
12715;SDS011;6422;49.938;9.124;2022-11-27T10:50:27;4.20;;;2.33;;
12715;SDS011;6422;49.938;9.124;2022-11-27T10:52:54;2.43;;;1.40;;
12715;SDS011;6422;49.938;9.124;2022-11-27T10:55:27;1.97;;;1.30;;
12715;SDS011;6422;49.938;9.124;2022-11-27T10:58:02;4.90;;;1.50;;
12715;SDS011;6422;49.938;9.124;2022-11-27T11:00:30;1.57;;;1.30;;
12715;SDS011;6422;49.938;9.124;2022-11-27T11:03:02;4.70;;;1.83;;
12715;SDS011;6422;49.938;9.124;2022-11-27T11:05:28;3.60;;;2.37;;
12715;SDS011;6422;49.938;9.124;2022-11-27T11:11:05;2.87;;;1.40;;
12715;SDS011;6422;49.938;9.124;2022-11-27T11:13:16;1.73;;;1.10;;
12715;SDS011;6422;49.938;9.124;2022-11-27T11:16:03;2.00;;;1.37;;
12715;SDS011;6422;49.938;9.124;2022-11-27T11:18:49;2.53;;;1.73;;
12715;SDS011;6422;49.938;9.124;2022-11-27T11:21:22;1.47;;;0.90;;
12715;SDS011;6422;49.938;9.124;2022-11-27T11:23:52;3.17;;;2.10;;
12715;SDS011;6422;49.938;9.124;2022-11-27T11:28:47;2.72;;;1.70;;
12715;SDS011;6422;49.938;9.124;2022-11-27T11:31:14;2.13;;;1.50;;
12715;SDS011;6422;49.938;9.124;2022-11-27T11:34:41;2.03;;;1.27;;
12715;SDS011;6422;49.938;9.124;2022-11-27T11:36:35;5.50;;;1.77;;
12715;SDS011;6422;49.938;9.124;2022-11-27T11:39:00;1.83;;;1.30;;
12715;SDS011;6422;49.938;9.124;2022-11-27T11:41:34;1.10;;;0.73;;
12715;SDS011;6422;49.938;9.124;2022-11-27T11:44:00;1.20;;;1.00;;
12715;SDS011;6422;49.938;9.124;2022-11-27T11:46:29;3.50;;;1.33;;
12715;SDS011;6422;49.938;9.124;2022-11-27T11:56:42;4.50;;;1.13;;
12715;SDS011;6422;49.938;9.124;2022-11-27T12:09:45;5.60;;;2.60;;
12715;SDS011;6422;49.938;9.124;2022-11-27T12:12:18;7.43;;;1.30;;
12715;SDS011;6422;49.938;9.124;2022-11-27T12:14:58;2.50;;;1.23;;
12715;SDS011;6422;49.938;9.124;2022-11-27T12:18:00;9.30;;;4.23;;
12715;SDS011;6422;49.938;9.124;2022-11-27T12:23:11;5.27;;;1.83;;
12715;SDS011;6422;49.938;9.124;2022-11-27T12:25:45;3.50;;;3.03;;
12715;SDS011;6422;49.938;9.124;2022-11-27T12:28:17;2.97;;;1.83;;
12715;SDS011;6422;49.938;9.124;2022-11-27T12:31:08;1.73;;;1.43;;
12715;SDS011;6422;49.938;9.124;2022-11-27T12:33:43;1.47;;;1.30;;
12715;SDS011;6422;49.938;9.124;2022-11-27T12:36:21;1.33;;;1.23;;
12715;SDS011;6422;49.938;9.124;2022-11-27T12:43:50;3.58;;;1.17;;
12715;SDS011;6422;49.938;9.124;2022-11-27T12:48:52;3.87;;;1.87;;
12715;SDS011;6422;49.938;9.124;2022-11-27T12:51:28;2.33;;;1.70;;
12715;SDS011;6422;49.938;9.124;2022-11-27T12:53:58;1.87;;;1.30;;
12715;SDS011;6422;49.938;9.124;2022-11-27T12:56:30;5.43;;;1.90;;
12715;SDS011;6422;49.938;9.124;2022-11-27T12:58:58;1.73;;;1.27;;
12715;SDS011;6422;49.938;9.124;2022-11-27T13:01:31;1.43;;;0.90;;
12715;SDS011;6422;49.938;9.124;2022-11-27T13:04:00;1.47;;;1.10;;
12715;SDS011;6422;49.938;9.124;2022-11-27T13:06:27;4.57;;;2.50;;
12715;SDS011;6422;49.938;9.124;2022-11-27T13:08:58;1.50;;;1.07;;
12715;SDS011;6422;49.938;9.124;2022-11-27T13:11:32;1.57;;;1.10;;
12715;SDS011;6422;49.938;9.124;2022-11-27T13:14:10;1.67;;;1.20;;
12715;SDS011;6422;49.938;9.124;2022-11-27T13:16:37;7.97;;;2.33;;
12715;SDS011;6422;49.938;9.124;2022-11-27T13:19:09;2.20;;;1.03;;
12715;SDS011;6422;49.938;9.124;2022-11-27T13:21:35;2.63;;;1.70;;
12715;SDS011;6422;49.938;9.124;2022-11-27T13:24:02;2.57;;;1.50;;
12715;SDS011;6422;49.938;9.124;2022-11-27T13:28:56;1.80;;;1.17;;
12715;SDS011;6422;49.938;9.124;2022-11-27T13:31:29;2.20;;;1.83;;
12715;SDS011;6422;49.938;9.124;2022-11-27T13:33:58;2.53;;;1.90;;
12715;SDS011;6422;49.938;9.124;2022-11-27T13:36:46;1.90;;;1.50;;
12715;SDS011;6422;49.938;9.124;2022-11-27T13:39:20;3.20;;;1.47;;
12715;SDS011;6422;49.938;9.124;2022-11-27T13:41:46;2.33;;;2.00;;
12715;SDS011;6422;49.938;9.124;2022-11-27T13:44:22;3.13;;;2.20;;
12715;SDS011;6422;49.938;9.124;2022-11-27T13:46:48;1.47;;;1.37;;
12715;SDS011;6422;49.938;9.124;2022-11-27T13:49:28;4.03;;;1.70;;
12715;SDS011;6422;49.938;9.124;2022-11-27T13:52:13;4.60;;;1.83;;
12715;SDS011;6422;49.938;9.124;2022-11-27T13:54:50;6.40;;;1.90;;
12715;SDS011;6422;49.938;9.124;2022-11-27T13:57:16;6.77;;;2.77;;
12715;SDS011;6422;49.938;9.124;2022-11-27T13:59:53;2.20;;;2.00;;
12715;SDS011;6422;49.938;9.124;2022-11-27T14:02:18;7.43;;;2.23;;
12715;SDS011;6422;49.938;9.124;2022-11-27T14:04:47;3.60;;;2.37;;
12715;SDS011;6422;49.938;9.124;2022-11-27T14:07:13;3.30;;;2.03;;
12715;SDS011;6422;49.938;9.124;2022-11-27T14:09:48;2.27;;;1.17;;
12715;SDS011;6422;49.938;9.124;2022-11-27T14:14:39;2.03;;;1.13;;
12715;SDS011;6422;49.938;9.124;2022-11-27T14:17:05;2.67;;;1.57;;
12715;SDS011;6422;49.938;9.124;2022-11-27T14:19:34;3.10;;;1.93;;
12715;SDS011;6422;49.938;9.124;2022-11-27T14:22:12;1.60;;;1.20;;
12715;SDS011;6422;49.938;9.124;2022-11-27T14:24:39;1.43;;;1.33;;
12715;SDS011;6422;49.938;9.124;2022-11-27T14:27:20;1.40;;;1.17;;
12715;SDS011;6422;49.938;9.124;2022-11-27T14:29:46;3.70;;;2.50;;
12715;SDS011;6422;49.938;9.124;2022-11-27T14:32:12;3.60;;;2.50;;
12715;SDS011;6422;49.938;9.124;2022-11-27T14:34:37;2.83;;;2.07;;
12715;SDS011;6422;49.938;9.124;2022-11-27T14:37:03;2.63;;;1.90;;
12715;SDS011;6422;49.938;9.124;2022-11-27T14:39:32;2.30;;;1.77;;
12715;SDS011;6422;49.938;9.124;2022-11-27T14:41:58;5.43;;;2.33;;
12715;SDS011;6422;49.938;9.124;2022-11-27T14:44:24;2.40;;;1.90;;
12715;SDS011;6422;49.938;9.124;2022-11-27T14:46:49;5.13;;;1.83;;
12715;SDS011;6422;49.938;9.124;2022-11-27T14:49:16;1.57;;;1.33;;
12715;SDS011;6422;49.938;9.124;2022-11-27T14:51:42;4.33;;;2.50;;
12715;SDS011;6422;49.938;9.124;2022-11-27T14:54:11;2.67;;;1.60;;
12715;SDS011;6422;49.938;9.124;2022-11-27T14:56:40;3.30;;;2.27;;
12715;SDS011;6422;49.938;9.124;2022-11-27T14:59:09;23.83;;;6.03;;
12715;SDS011;6422;49.938;9.124;2022-11-27T15:01:36;11.83;;;4.40;;
12715;SDS011;6422;49.938;9.124;2022-11-27T15:04:05;4.50;;;2.50;;
12715;SDS011;6422;49.938;9.124;2022-11-27T15:06:34;2.80;;;2.33;;
12715;SDS011;6422;49.938;9.124;2022-11-27T15:09:00;7.00;;;2.20;;
12715;SDS011;6422;49.938;9.124;2022-11-27T15:11:25;2.63;;;1.80;;
12715;SDS011;6422;49.938;9.124;2022-11-27T15:13:54;1.83;;;1.67;;
12715;SDS011;6422;49.938;9.124;2022-11-27T15:16:20;3.60;;;2.50;;
12715;SDS011;6422;49.938;9.124;2022-11-27T15:18:47;3.70;;;1.87;;
12715;SDS011;6422;49.938;9.124;2022-11-27T15:21:17;3.37;;;2.00;;
12715;SDS011;6422;49.938;9.124;2022-11-27T15:23:44;2.67;;;1.73;;
12715;SDS011;6422;49.938;9.124;2022-11-27T15:26:11;7.67;;;2.60;;
12715;SDS011;6422;49.938;9.124;2022-11-27T15:28:41;9.10;;;2.60;;
12715;SDS011;6422;49.938;9.124;2022-11-27T15:33:54;2.93;;;2.23;;
12715;SDS011;6422;49.938;9.124;2022-11-27T15:36:20;5.10;;;2.57;;
12715;SDS011;6422;49.938;9.124;2022-11-27T15:38:46;3.00;;;2.00;;
12715;SDS011;6422;49.938;9.124;2022-11-27T15:41:24;3.97;;;2.20;;
12715;SDS011;6422;49.938;9.124;2022-11-27T15:43:50;3.43;;;1.70;;
12715;SDS011;6422;49.938;9.124;2022-11-27T15:46:16;3.87;;;2.43;;
12715;SDS011;6422;49.938;9.124;2022-11-27T15:48:43;2.20;;;1.87;;
12715;SDS011;6422;49.938;9.124;2022-11-27T15:51:08;2.65;;;2.20;;
12715;SDS011;6422;49.938;9.124;2022-11-27T15:53:33;3.43;;;1.80;;
12715;SDS011;6422;49.938;9.124;2022-11-27T15:55:59;7.10;;;2.93;;
12715;SDS011;6422;49.938;9.124;2022-11-27T15:58:24;2.80;;;1.93;;
12715;SDS011;6422;49.938;9.124;2022-11-27T16:00:49;3.43;;;1.77;;
12715;SDS011;6422;49.938;9.124;2022-11-27T16:03:14;4.90;;;2.17;;
12715;SDS011;6422;49.938;9.124;2022-11-27T16:05:39;4.03;;;2.23;;
12715;SDS011;6422;49.938;9.124;2022-11-27T16:08:05;3.23;;;1.70;;
12715;SDS011;6422;49.938;9.124;2022-11-27T16:10:31;2.63;;;1.80;;
12715;SDS011;6422;49.938;9.124;2022-11-27T16:12:56;3.03;;;1.73;;
12715;SDS011;6422;49.938;9.124;2022-11-27T16:15:23;2.93;;;1.53;;
12715;SDS011;6422;49.938;9.124;2022-11-27T16:17:48;2.83;;;2.00;;
12715;SDS011;6422;49.938;9.124;2022-11-27T16:20:13;3.50;;;1.83;;
12715;SDS011;6422;49.938;9.124;2022-11-27T16:22:38;2.17;;;1.70;;